High Wycombe, United Kingdom
Current Conditions -  °F | °C
As of 8:50 PM on Saturday 25 Oct 2014 (Local Time) from EGUB Reporting Station
Overcast Overcast  
Wind Chill: 55°   Ceiling: 3400
Heat Index: 55°   Visibility: 6mi
Dew Point: 46°   Wind: 10mph
Humidity: 72%   Direction: 180°S
Pressure: 30.09"   Gusts: NA
Location:  51.63°N, 0.75°W
Report Text: EGUB 251950Z AUTO 18009KT 9999 // OVC034/// 13/08 Q1019
Loading
Personal Weather Stations






























Interactive Weather Map
Tropical Storm Tracking
New forecast layout! Learn more

10-Day Weather Forecast

Advertisements
Track Severe Weather on mobile